Time;durP1;ratioP1;P1;durP2;ratioP2;P2;SDS_P1;SDS_P2;PMS_P1;PMS_P2;Temp;Humidity;BMP_temperature;BMP_pressure;BME280_temperature;BME280_humidity;BME280_pressure;Samples;Min_cycle;Max_cycle;Signal;HPM_P1;HPM_P2
2023/03/01 00:01:48;;;;;;;20.75;17.30;;;6.30;99.90;;;6.38;71.77;103050.69;5032888;28;20044;-69
2023/03/01 00:04:16;;;;;;;20.23;16.25;;;6.30;99.90;;;6.37;72.08;103054.13;5031602;28;20826;-69
2023/03/01 00:06:45;;;;;;;22.02;17.00;;;6.20;99.90;;;6.42;72.10;103051.72;5032747;28;20488;-68
2023/03/01 00:09:14;;;;;;;18.80;15.85;;;6.20;99.90;;;6.37;72.04;103049.78;5032496;28;20046;-68
2023/03/01 00:11:42;;;;;;;20.20;16.92;;;6.20;99.90;;;6.40;71.67;103056.94;5032508;28;20046;-68
2023/03/01 00:14:11;;;;;;;20.92;17.17;;;6.20;99.90;;;6.35;72.06;103051.44;5032800;28;20441;-69
2023/03/01 00:16:43;;;;;;;20.60;17.27;;;6.10;99.90;;;6.31;72.16;103049.50;5032673;28;20125;-69
2023/03/01 00:19:15;;;;;;;19.75;17.20;;;6.10;99.90;;;6.31;72.44;103051.22;5033043;28;20045;-68
2023/03/01 00:21:44;;;;;;;22.90;18.30;;;6.10;99.90;;;6.24;72.45;103031.63;5032710;28;20045;-68
2023/03/01 00:24:12;;;;;;;20.45;17.55;;;6.10;99.90;;;6.34;72.26;103043.50;5032720;28;20042;-68
2023/03/01 00:26:41;;;;;;;22.83;16.90;;;6.10;99.90;;;6.30;72.54;103047.69;5038701;28;20041;-68
2023/03/01 00:29:09;;;;;;;24.25;18.17;;;6.10;99.90;;;6.16;72.96;103038.25;5038895;28;20056;-68
2023/03/01 00:31:37;;;;;;;24.92;18.42;;;6.00;99.90;;;6.19;72.54;103033.13;5037956;28;20470;-68
2023/03/01 00:34:07;;;;;;;20.02;17.38;;;6.00;99.90;;;6.20;72.98;103034.94;5037841;28;20080;-68
2023/03/01 00:36:38;;;;;;;20.85;17.75;;;6.00;99.90;;;5.93;72.93;102975.81;5037927;28;20045;-69
2023/03/01 00:39:12;;;;;;;24.80;18.25;;;6.00;99.90;;;6.24;73.23;103043.88;5037942;28;20100;-68
2023/03/01 00:41:41;;;;;;;20.13;17.77;;;6.00;99.90;;;6.24;73.70;103046.50;5037377;28;20088;-68
2023/03/01 00:44:10;;;;;;;21.95;18.35;;;6.00;99.90;;;6.23;73.69;103045.59;5037813;28;20484;-69
2023/03/01 00:46:39;;;;;;;22.23;17.70;;;6.00;99.90;;;6.18;73.65;103035.69;5038678;28;20079;-68
2023/03/01 00:49:09;;;;;;;22.08;18.30;;;6.00;99.90;;;6.14;74.22;103037.28;5038813;28;20045;-68
2023/03/01 00:51:39;;;;;;;25.17;18.33;;;6.00;99.90;;;6.23;74.61;103035.06;5039055;28;20492;-68
2023/03/01 00:54:08;;;;;;;22.63;18.83;;;6.00;99.90;;;6.18;74.90;103036.59;5039128;28;20069;-68
2023/03/01 00:56:37;;;;;;;21.45;18.27;;;6.00;99.90;;;6.17;75.05;103039.16;5039570;28;20042;-68
2023/03/01 00:59:05;;;;;;;22.88;19.15;;;6.00;99.90;;;6.10;74.83;103027.44;5039267;28;20124;-68
2023/03/01 01:01:34;;;;;;;26.05;20.33;;;5.90;99.90;;;6.18;75.34;103031.34;5037645;28;20052;-69
2023/03/01 01:04:05;;;;;;;22.53;19.10;;;5.90;99.90;;;6.19;75.38;103035.75;5038661;28;20045;-69
2023/03/01 01:06:38;;;;;;;23.67;19.77;;;6.00;99.90;;;6.06;75.68;103030.75;5038651;28;20452;-69
2023/03/01 01:09:08;;;;;;;29.02;20.02;;;6.00;99.90;;;6.15;76.20;103031.22;5038979;28;20045;-68
2023/03/01 01:11:37;;;;;;;23.60;20.55;;;5.90;99.90;;;6.12;76.06;103028.41;5038912;28;20045;-68
2023/03/01 01:14:05;;;;;;;27.73;20.63;;;5.90;99.90;;;6.12;76.35;103030.13;5038628;28;20488;-68
2023/03/01 01:16:34;;;;;;;24.90;21.08;;;5.90;99.90;;;6.10;76.65;103022.19;5037092;28;20073;-68
2023/03/01 01:19:03;;;;;;;26.55;20.90;;;5.90;99.90;;;6.02;76.74;103015.66;5037479;28;20690;-68
2023/03/01 01:21:31;;;;;;;30.75;21.85;;;5.90;99.90;;;6.14;76.89;103023.22;5038797;28;20041;-68
2023/03/01 01:24:03;;;;;;;24.85;21.35;;;6.00;99.90;;;6.12;76.73;103025.78;5037145;28;20045;-68
2023/03/01 01:26:35;;;;;;;29.40;21.97;;;5.90;99.90;;;6.06;77.12;103022.88;5038831;28;20046;-68
2023/03/01 01:29:05;;;;;;;28.13;22.08;;;5.90;99.90;;;6.04;77.23;103024.50;5037399;28;20095;-68
2023/03/01 01:31:35;;;;;;;25.92;21.73;;;5.90;99.90;;;6.00;77.22;103009.44;5037411;28;20141;-68
2023/03/01 01:34:08;;;;;;;27.20;21.25;;;5.90;99.90;;;6.14;77.71;103018.88;5038714;28;20496;-68
2023/03/01 01:36:37;;;;;;;27.17;22.17;;;6.00;99.90;;;6.14;77.75;103003.13;5037125;28;20050;-68
2023/03/01 01:39:07;;;;;;;28.73;21.90;;;6.00;99.90;;;5.97;78.08;103011.00;5035440;28;20045;-68
2023/03/01 01:41:35;;;;;;;28.08;22.80;;;5.90;99.90;;;6.09;78.08;102993.22;5035086;28;20049;-69
2023/03/01 01:44:19;;;;;;;29.52;22.55;;;5.90;99.90;;;5.96;78.33;102983.84;5035337;28;20034;-68
2023/03/01 01:46:52;;;;;;;28.45;23.38;;;5.80;99.90;;;5.90;78.93;102990.53;5035694;28;20480;-69
2023/03/01 01:49:28;;;;;;;30.98;24.67;;;5.70;99.90;;;6.02;78.95;102986.75;5033806;28;20083;-69
2023/03/01 01:52:05;;;;;;;29.73;23.30;;;5.80;99.90;;;6.02;79.16;102980.63;5035025;28;20484;-68
2023/03/01 01:54:43;;;;;;;31.00;25.00;;;5.80;99.90;;;5.98;79.05;102970.81;5034055;28;20049;-68
2023/03/01 01:57:17;;;;;;;30.20;24.00;;;5.80;99.90;;;5.92;79.61;102974.00;5035136;28;20132;-68
2023/03/01 01:59:50;;;;;;;32.03;24.30;;;5.80;99.90;;;5.92;79.81;102962.63;5033902;28;20049;-68
2023/03/01 02:02:19;;;;;;;35.45;26.15;;;5.70;99.90;;;5.91;80.01;102987.97;5035126;28;20088;-69
2023/03/01 02:04:49;;;;;;;31.90;25.67;;;5.70;99.90;;;5.89;79.85;102958.13;5034772;28;20042;-68
2023/03/01 02:07:20;;;;;;;32.47;25.67;;;5.70;99.90;;;5.88;80.04;102958.97;5035215;28;20051;-68
2023/03/01 02:09:53;;;;;;;36.22;25.83;;;5.70;99.90;;;5.84;80.48;102959.63;5034957;28;20445;-68
2023/03/01 02:12:25;;;;;;;32.03;25.30;;;5.60;99.90;;;5.86;81.00;102967.59;5034976;28;20045;-68
2023/03/01 02:14:53;;;;;;;33.45;24.60;;;5.60;99.90;;;5.82;80.48;102955.09;5033341;28;20041;-69
2023/03/01 02:17:22;;;;;;;33.75;25.67;;;5.60;99.90;;;5.81;80.39;102962.06;5034771;28;20044;-68
2023/03/01 02:20:06;;;;;;;35.33;27.00;;;5.60;99.90;;;5.83;80.69;102956.88;5034505;28;20069;-69
2023/03/01 02:22:38;;;;;;;32.50;25.83;;;5.60;99.90;;;5.80;80.42;102951.50;5034793;28;20068;-68
2023/03/01 02:25:25;;;;;;;38.40;26.10;;;5.60;99.90;;;5.81;80.80;102951.56;5034748;28;20096;-68
2023/03/01 02:27:59;;;;;;;34.67;25.45;;;5.60;99.90;;;5.84;80.46;102938.63;5033196;28;20498;-68
2023/03/01 02:30:30;;;;;;;32.07;25.40;;;5.60;99.90;;;5.81;80.32;102953.28;5034668;28;20548;-69
2023/03/01 02:33:02;;;;;;;30.23;25.43;;;5.60;99.90;;;5.75;79.93;102956.50;5034635;28;20049;-69
2023/03/01 02:35:35;;;;;;;31.97;25.10;;;5.60;99.90;;;5.74;79.86;102952.09;5034777;28;20045;-68
2023/03/01 02:38:04;;;;;;;33.20;26.37;;;5.50;99.90;;;5.65;80.15;102945.50;5034788;28;20056;-68
2023/03/01 02:40:36;;;;;;;32.30;25.30;;;5.50;99.90;;;5.76;79.93;102949.53;5034220;28;20129;-68
2023/03/01 02:43:09;;;;;;;35.20;24.77;;;5.50;99.90;;;5.79;79.55;102954.97;5033019;28;20296;-68
2023/03/01 02:45:48;;;;;;;33.43;25.53;;;5.50;99.90;;;4.96;79.20;102811.75;5034153;28;20045;-69
2023/03/01 02:48:17;;;;;;;33.80;25.63;;;5.50;99.90;;;5.65;79.46;102930.66;5034005;28;20471;-68
2023/03/01 02:51:04;;;;;;;31.27;24.27;;;5.50;99.90;;;5.77;79.20;102946.97;5034477;28;20048;-69
2023/03/01 02:53:42;;;;;;;33.07;24.97;;;5.50;99.90;;;5.75;78.91;102938.13;5034225;28;20041;-68
2023/03/01 02:56:12;;;;;;;34.45;24.48;;;5.50;99.90;;;5.73;79.07;102938.91;5034163;28;20041;-68
2023/03/01 02:58:45;;;;;;;33.28;25.80;;;5.40;99.90;;;5.69;78.96;102950.97;5032731;28;20045;-69
2023/03/01 03:01:16;;;;;;;36.90;27.23;;;5.50;99.90;;;5.74;79.26;102932.81;5032773;28;20129;-68
2023/03/01 03:03:44;;;;;;;34.47;25.92;;;5.50;99.90;;;5.68;79.09;102925.56;5032606;28;20041;-68
2023/03/01 03:06:14;;;;;;;37.57;28.87;;;5.40;99.90;;;5.76;79.51;102921.56;5032574;28;20079;-68
2023/03/01 03:08:43;;;;;;;34.63;27.13;;;5.50;99.90;;;5.69;79.70;102926.47;5032425;28;20041;-69
2023/03/01 03:11:12;;;;;;;37.00;28.00;;;5.50;99.90;;;5.73;79.84;102921.41;5032519;28;20449;-69
2023/03/01 03:13:47;;;;;;;35.40;27.60;;;5.50;99.90;;;5.66;80.11;102928.91;5033697;28;20041;-69
2023/03/01 03:16:18;;;;;;;36.50;28.57;;;5.50;99.90;;;5.61;80.11;102923.47;5032434;28;20087;-69
2023/03/01 03:18:46;;;;;;;40.85;27.80;;;5.40;99.90;;;5.63;80.07;102926.16;5032498;28;20060;-69
2023/03/01 03:21:16;;;;;;;35.35;27.48;;;5.40;99.90;;;5.55;80.47;102928.41;5033278;28;20049;-69
2023/03/01 03:23:44;;;;;;;37.27;28.60;;;5.30;99.90;;;5.61;80.31;102915.59;5033368;28;20069;-69
2023/03/01 03:26:14;;;;;;;38.38;27.73;;;5.40;99.90;;;5.54;80.38;102918.72;5032418;28;20057;-68
2023/03/01 03:28:43;;;;;;;36.40;28.67;;;5.30;99.90;;;5.41;80.11;102885.75;5032163;28;20069;-68
2023/03/01 03:31:11;;;;;;;40.17;29.45;;;5.40;99.90;;;5.54;80.20;102910.84;5032611;28;20132;-68
2023/03/01 03:33:41;;;;;;;38.50;28.80;;;5.30;99.90;;;5.48;80.22;102907.91;5032621;28;20041;-69
2023/03/01 03:36:12;;;;;;;35.03;27.85;;;5.30;99.90;;;5.28;80.16;102883.31;5033147;28;20037;-68
2023/03/01 03:38:41;;;;;;;38.30;29.33;;;5.30;99.90;;;5.53;80.48;102911.69;5031404;28;20069;-69
2023/03/01 03:41:09;;;;;;;40.47;31.40;;;5.30;99.90;;;5.61;80.37;102906.81;5032397;28;20049;-68
2023/03/01 03:43:42;;;;;;;39.63;29.20;;;5.30;99.90;;;5.34;80.02;102880.13;5032672;28;20188;-68
2023/03/01 03:46:12;;;;;;;37.10;28.07;;;5.30;99.90;;;5.39;80.49;102899.59;5032729;28;20048;-69
2023/03/01 03:48:44;;;;;;;38.60;29.83;;;5.20;99.90;;;5.40;80.62;102904.06;5032234;28;20080;-69
2023/03/01 03:51:15;;;;;;;37.73;29.90;;;5.20;99.90;;;5.43;80.53;102912.97;5032253;28;20037;-69
2023/03/01 03:53:45;;;;;;;41.60;31.10;;;5.20;99.90;;;5.39;80.40;102904.84;5031274;28;20562;-69
2023/03/01 03:56:14;;;;;;;38.80;28.57;;;5.20;99.90;;;4.41;80.16;102737.38;5032242;28;20045;-68
2023/03/01 03:58:42;;;;;;;40.37;31.23;;;5.20;99.90;;;5.37;80.39;102904.78;5032473;28;20049;-70
2023/03/01 04:01:10;;;;;;;40.10;30.67;;;5.10;99.90;;;5.37;80.06;102909.13;5031657;28;20121;-69
2023/03/01 04:03:39;;;;;;;39.17;29.70;;;5.10;99.90;;;5.35;80.26;102909.06;5032135;28;20053;-69
2023/03/01 04:06:09;;;;;;;42.07;30.60;;;5.10;99.90;;;5.38;80.33;102903.06;5032417;28;20108;-69
2023/03/01 04:08:37;;;;;;;38.33;29.60;;;5.10;99.90;;;5.29;80.21;102902.59;5032311;28;20045;-69
2023/03/01 04:13:49;;;;;;;39.63;30.37;;;5.10;99.90;;;5.36;80.71;102897.72;5031824;28;20057;-69
2023/03/01 04:16:17;;;;;;;41.57;32.00;;;5.10;99.90;;;5.40;80.41;102896.19;5032210;28;20443;-68
2023/03/01 04:18:46;;;;;;;41.07;32.70;;;5.10;99.90;;;5.31;80.38;102879.97;5031130;28;20052;-69
2023/03/01 04:21:16;;;;;;;42.00;32.03;;;5.10;99.90;;;5.35;80.15;102892.41;5031918;28;20037;-68
2023/03/01 04:23:44;;;;;;;40.83;31.20;;;5.10;99.90;;;5.30;80.21;102897.41;5031272;28;20056;-68
2023/03/01 04:26:13;;;;;;;43.70;32.13;;;5.10;99.90;;;5.24;80.19;102894.53;5030905;28;20042;-68
2023/03/01 04:28:45;;;;;;;43.97;32.40;;;5.00;99.90;;;5.20;80.52;102882.06;5032440;28;20040;-68
2023/03/01 04:31:18;;;;;;;40.83;31.47;;;5.00;99.90;;;5.22;80.38;102890.00;5031976;28;20044;-68
2023/03/01 04:33:51;;;;;;;45.13;31.00;;;5.00;99.90;;;5.24;80.18;102894.53;5032213;28;20049;-69
2023/03/01 04:36:24;;;;;;;41.80;32.10;;;5.00;99.90;;;5.25;79.92;102890.16;5032234;28;20668;-68
2023/03/01 04:38:53;;;;;;;45.00;34.27;;;5.00;99.90;;;5.13;79.93;102887.81;5030952;28;20451;-68
2023/03/01 04:41:24;;;;;;;41.37;31.47;;;5.00;99.90;;;5.20;80.33;102894.28;5032010;28;20046;-68
2023/03/01 04:43:52;;;;;;;44.03;32.50;;;4.90;99.90;;;5.20;79.89;102889.94;5032165;28;20064;-68
2023/03/01 04:46:22;;;;;;;44.07;32.37;;;5.00;99.90;;;5.18;80.35;102890.69;5032215;28;20083;-69
2023/03/01 04:48:51;;;;;;;43.95;31.95;;;5.00;99.90;;;5.12;80.03;102880.78;5031704;28;20049;-69
2023/03/01 04:51:20;;;;;;;39.80;30.27;;;4.90;99.90;;;4.92;79.33;102875.34;5031864;28;20068;-69
2023/03/01 04:53:49;;;;;;;38.80;29.42;;;4.80;99.90;;;4.71;78.56;102871.66;5030843;28;20084;-70
2023/03/01 04:56:18;;;;;;;33.73;26.87;;;4.60;99.90;;;4.59;77.73;102850.94;5031862;28;20045;-69
2023/03/01 04:58:47;;;;;;;33.50;27.13;;;4.40;99.90;;;4.49;77.43;102857.44;5032019;28;20042;-68
2023/03/01 05:01:20;;;;;;;28.90;24.63;;;4.30;99.90;;;4.15;77.02;102852.97;5031969;28;20041;-68
2023/03/01 05:03:51;;;;;;;30.37;24.67;;;4.10;99.90;;;3.88;76.23;102864.56;5031899;28;20100;-69
2023/03/01 05:06:22;;;;;;;31.63;25.17;;;3.80;99.90;;;3.78;75.41;102847.47;5032362;28;20041;-68
2023/03/01 05:08:50;;;;;;;31.90;25.83;;;3.70;99.90;;;2.92;75.65;102719.75;5032171;28;20057;-68
2023/03/01 05:11:19;;;;;;;29.37;25.37;;;3.50;99.90;;;3.60;75.59;102844.75;5030444;28;20081;-68
2023/03/01 05:13:47;;;;;;;27.30;22.47;;;3.40;99.90;;;3.50;75.54;102846.78;5035445;28;20132;-68
2023/03/01 05:16:16;;;;;;;31.50;25.47;;;3.30;99.90;;;2.43;75.49;102721.28;5034118;28;20484;-68
2023/03/01 05:18:45;;;;;;;30.67;22.90;;;3.10;99.90;;;2.99;75.55;102841.19;5035436;28;20051;-68
2023/03/01 05:21:16;;;;;;;29.23;24.00;;;2.80;99.90;;;2.86;75.30;102843.94;5035070;28;20049;-68
2023/03/01 05:23:46;;;;;;;33.00;25.67;;;2.70;99.90;;;2.98;76.08;102840.28;5034029;28;20045;-68
2023/03/01 05:26:18;;;;;;;32.25;25.80;;;2.70;99.90;;;2.98;76.26;102839.41;5035347;28;20151;-68
2023/03/01 05:29:08;;;;;;;34.07;27.40;;;2.80;99.90;;;2.80;75.67;102833.13;5034817;28;20037;-68
2023/03/01 05:31:37;;;;;;;38.85;27.92;;;2.60;99.90;;;2.85;75.93;102827.34;5035462;28;20041;-68
2023/03/01 05:34:06;;;;;;;36.65;27.73;;;2.70;99.90;;;2.91;76.36;102838.16;5033792;28;20045;-68
2023/03/01 05:36:34;;;;;;;33.70;26.80;;;2.80;99.90;;;2.77;76.09;102822.50;5035289;28;20053;-69
2023/03/01 05:39:04;;;;;;;33.47;27.17;;;2.70;99.90;;;2.77;76.13;102843.41;5033544;28;20045;-68
2023/03/01 05:41:33;;;;;;;35.00;27.98;;;2.60;99.90;;;2.87;76.40;102815.25;5034660;28;20049;-68
2023/03/01 05:44:04;;;;;;;33.87;27.27;;;2.70;99.90;;;2.90;76.64;102814.56;5034539;28;20068;-68
2023/03/01 05:46:33;;;;;;;34.42;27.00;;;2.70;99.90;;;2.86;76.98;102813.47;5034927;28;20276;-68
2023/03/01 05:49:02;;;;;;;36.60;28.73;;;2.70;99.90;;;2.96;77.29;102807.94;5034571;28;20138;-68
2023/03/01 05:51:30;;;;;;;28.63;24.00;;;2.70;99.90;;;2.84;76.07;102808.97;5034506;28;20136;-68
2023/03/01 05:53:59;;;;;;;27.10;23.80;;;2.70;99.90;;;2.74;75.33;102803.22;5034449;28;20038;-68
2023/03/01 05:56:29;;;;;;;30.80;24.07;;;2.60;99.90;;;2.93;75.19;102806.88;5034507;28;20496;-68
2023/03/01 05:58:57;;;;;;;26.17;22.95;;;2.70;99.90;;;3.01;74.79;102808.22;5034598;28;20041;-68
2023/03/01 06:01:26;;;;;;;28.53;24.00;;;2.80;99.90;;;2.82;74.36;102780.16;5033293;28;20046;-68
2023/03/01 06:03:54;;;;;;;25.83;23.03;;;2.80;99.90;;;2.69;74.18;102807.25;5033176;28;20046;-68
2023/03/01 06:06:22;;;;;;;25.77;22.97;;;2.60;99.90;;;2.61;74.43;102805.91;5035056;28;20483;-68
2023/03/01 06:08:52;;;;;;;25.50;21.80;;;2.50;99.90;;;2.48;74.21;102803.41;5034416;28;20051;-68
2023/03/01 06:11:21;;;;;;;23.93;21.33;;;2.40;99.90;;;2.32;74.29;102794.59;5034353;28;20045;-68
2023/03/01 06:13:51;;;;;;;24.73;21.23;;;2.30;99.90;;;2.48;74.08;102805.09;5034136;28;20391;-68
2023/03/01 06:16:19;;;;;;;30.85;24.08;;;2.40;99.90;;;2.39;74.77;102800.25;5034296;28;20046;-68
2023/03/01 06:18:48;;;;;;;27.57;23.90;;;2.40;99.90;;;2.50;75.11;102795.66;5033994;28;20049;-68
2023/03/01 06:21:16;;;;;;;23.63;21.13;;;2.40;99.90;;;2.44;74.68;102810.97;5034006;28;20087;-68
2023/03/01 06:23:44;;;;;;;21.73;19.53;;;2.40;99.90;;;2.30;74.32;102806.63;5033466;28;20072;-68
2023/03/01 06:26:13;;;;;;;20.57;18.60;;;2.30;99.90;;;2.04;74.37;102809.38;5033836;28;20146;-68
2023/03/01 06:28:41;;;;;;;21.97;19.77;;;2.10;99.90;;;2.03;74.66;102815.41;5033755;28;20079;-69
2023/03/01 06:31:11;;;;;;;23.47;21.07;;;1.90;99.90;;;1.92;74.57;102814.75;5033696;28;20076;-68
2023/03/01 06:33:39;;;;;;;22.58;20.27;;;1.80;99.90;;;1.88;75.03;102814.47;5033784;28;20067;-68
2023/03/01 06:36:09;;;;;;;23.67;21.27;;;1.70;99.90;;;1.86;74.82;102818.69;5032725;28;20048;-69
2023/03/01 06:38:40;;;;;;;23.88;21.33;;;1.70;99.90;;;1.87;74.71;102813.56;5032527;28;20186;-69
2023/03/01 06:41:08;;;;;;;23.60;21.07;;;1.70;99.90;;;1.81;74.99;102797.53;5033340;28;20164;-68
2023/03/01 06:43:37;;;;;;;23.67;21.23;;;1.80;99.90;;;2.00;76.10;102815.22;5032094;28;20053;-68
2023/03/01 06:46:07;;;;;;;23.83;21.27;;;1.80;99.90;;;2.04;76.43;102818.13;5033382;28;20065;-68
2023/03/01 06:48:37;;;;;;;24.13;21.75;;;1.90;99.90;;;2.03;76.67;102818.03;5032289;28;20115;-68
2023/03/01 06:51:06;;;;;;;24.13;21.70;;;1.90;99.90;;;2.03;76.71;102824.16;5033875;28;20073;-68
2023/03/01 06:53:34;;;;;;;24.00;21.50;;;1.80;99.90;;;2.12;76.79;102816.88;5033237;28;20408;-69
2023/03/01 06:56:04;;;;;;;22.83;20.53;;;1.90;99.90;;;2.38;76.58;102810.63;5033160;28;20038;-69
2023/03/01 06:58:32;;;;;;;23.50;21.10;;;2.10;99.90;;;2.55;76.43;102813.41;5033103;28;20093;-68
2023/03/01 07:01:01;;;;;;;21.73;19.63;;;2.30;99.90;;;2.79;76.13;102824.38;5032216;28;20060;-68
2023/03/01 07:03:29;;;;;;;23.13;20.83;;;2.50;99.90;;;2.99;75.94;102820.28;5033292;28;20117;-68
2023/03/01 07:05:58;;;;;;;22.30;20.00;;;2.70;99.90;;;3.15;75.38;102812.53;5031808;28;20057;-69
2023/03/01 07:08:27;;;;;;;22.80;20.60;;;2.80;99.90;;;3.40;75.34;102810.47;5031933;28;20049;-68
2023/03/01 07:10:58;;;;;;;22.37;20.10;;;3.10;99.90;;;3.61;75.37;102812.56;5033016;28;20052;-69
2023/03/01 07:13:27;;;;;;;22.83;20.63;;;3.30;99.90;;;3.86;75.62;102806.91;5032151;28;20081;-69
2023/03/01 07:15:55;;;;;;;22.47;20.37;;;3.60;99.90;;;4.08;75.39;102806.34;5033399;28;20049;-69
2023/03/01 07:18:24;;;;;;;20.63;18.63;;;3.90;99.90;;;3.98;73.85;102806.66;5033273;28;20106;-68
2023/03/01 07:20:52;;;;;;;19.50;17.70;;;3.90;99.90;;;3.90;72.80;102813.22;5033138;28;20053;-69
2023/03/01 07:23:22;;;;;;;19.70;17.80;;;3.80;99.90;;;3.85;71.84;102828.69;5032878;28;20459;-68
2023/03/01 07:25:53;;;;;;;18.85;16.98;;;3.70;99.90;;;3.67;71.45;102825.97;5033187;28;20045;-69
2023/03/01 07:28:24;;;;;;;18.83;17.00;;;3.60;99.90;;;3.96;71.54;102819.69;5033080;28;20049;-69
2023/03/01 07:30:52;;;;;;;18.95;17.05;;;3.70;99.90;;;4.66;71.78;102832.13;5032655;28;20046;-69
2023/03/01 07:33:20;;;;;;;19.63;17.77;;;4.30;99.90;;;5.15;70.28;102835.47;5032987;28;20072;-68
2023/03/01 07:35:49;;;;;;;19.87;18.07;;;4.80;99.90;;;5.69;68.74;102837.19;5031900;28;20052;-69
2023/03/01 07:38:17;;;;;;;20.13;18.23;;;5.40;99.90;;;6.09;67.10;102828.63;5032714;28;20092;-68
2023/03/01 07:40:47;;;;;;;19.17;17.27;;;5.80;99.90;;;6.52;66.13;102835.78;5032520;28;20414;-68
2023/03/01 07:43:15;;;;;;;20.25;18.23;;;6.30;99.90;;;7.02;65.26;102829.19;5032529;28;20079;-68
2023/03/01 07:45:44;;;;;;;20.45;18.33;;;6.80;99.90;;;7.07;63.03;102842.53;5032368;28;20041;-69
2023/03/01 07:48:13;;;;;;;18.67;16.98;;;6.90;99.90;;;6.96;63.08;102843.81;5032563;28;20041;-68
2023/03/01 07:50:41;;;;;;;19.40;17.40;;;6.80;99.90;;;7.04;63.46;102847.69;5032919;28;20044;-69
2023/03/01 07:53:10;;;;;;;20.77;18.58;;;6.80;99.90;;;7.53;63.73;102856.72;5032750;28;20033;-68
2023/03/01 07:55:39;;;;;;;22.08;19.88;;;7.20;99.90;;;8.17;63.05;102842.53;5032426;28;20048;-69
2023/03/01 07:58:08;;;;;;;23.88;21.15;;;7.80;99.90;;;8.56;63.12;102842.19;5032341;28;20480;-69
2023/03/01 08:00:37;;;;;;;24.27;21.67;;;8.30;99.90;;;8.96;62.25;102850.69;5032317;28;20076;-69
2023/03/01 08:03:05;;;;;;;22.85;20.30;;;8.70;99.90;;;8.71;62.31;102854.19;5032360;28;20037;-69
2023/03/01 08:05:34;;;;;;;24.73;21.65;;;8.60;99.90;;;9.07;62.58;102850.19;5031346;28;20118;-68
2023/03/01 08:08:02;;;;;;;25.30;22.48;;;8.80;99.90;;;9.48;62.07;102845.34;5032115;28;20128;-68
2023/03/01 08:10:31;;;;;;;27.35;22.52;;;9.20;99.90;;;9.95;61.57;102843.31;5032019;28;20053;-69
2023/03/01 08:12:59;;;;;;;28.17;23.88;;;9.60;99.90;;;10.26;60.15;102844.25;5032088;28;20400;-68
2023/03/01 08:15:29;;;;;;;28.08;22.77;;;10.00;99.90;;;10.48;59.47;102843.97;5032021;28;20041;-68
2023/03/01 08:17:57;;;;;;;27.13;22.60;;;10.30;99.90;;;10.74;58.74;102848.25;5032531;28;20041;-69
2023/03/01 08:20:25;;;;;;;26.25;22.45;;;10.60;99.90;;;10.99;57.93;102841.81;5031954;28;20033;-68
2023/03/01 08:22:54;;;;;;;25.52;22.73;;;10.90;99.90;;;11.25;56.93;102841.59;5032057;28;20120;-69
2023/03/01 08:25:22;;;;;;;22.33;19.90;;;11.10;99.90;;;11.49;55.65;102842.22;5031945;28;20041;-69
2023/03/01 08:27:50;;;;;;;22.38;19.55;;;11.40;99.90;;;11.68;53.69;102831.19;5030862;28;20041;-69
2023/03/01 08:30:20;;;;;;;20.83;18.58;;;11.60;99.90;;;12.04;53.36;102846.13;5030830;28;20049;-68
2023/03/01 08:32:50;;;;;;;19.92;17.83;;;11.90;99.90;;;12.21;52.02;102842.97;5030800;28;20091;-68
2023/03/01 08:35:19;;;;;;;20.90;16.70;;;12.10;99.90;;;11.82;50.17;102827.94;5031015;28;20053;-68
2023/03/01 08:37:48;;;;;;;18.13;16.13;;;11.90;99.90;;;11.94;50.45;102828.22;5030927;28;20708;-68
2023/03/01 08:40:17;;;;;;;19.20;17.20;;;11.80;99.90;;;12.08;49.96;102826.75;5032016;28;20045;-68
2023/03/01 08:42:45;;;;;;;18.95;16.08;;;11.90;99.90;;;12.08;48.53;102824.13;5032021;28;20140;-69
2023/03/01 08:45:17;;;;;;;17.65;15.82;;;12.00;99.90;;;12.13;49.09;102833.94;5030854;28;20073;-69
2023/03/01 08:47:46;;;;;;;17.75;15.88;;;12.00;99.90;;;12.15;47.89;102828.66;5034458;28;20444;-69
2023/03/01 08:50:16;;;;;;;19.45;17.15;;;12.10;99.90;;;10.66;50.76;102829.50;5036450;28;20056;-69
2023/03/01 08:52:45;;;;;;;21.80;16.52;;;10.90;99.90;;;11.27;51.18;102833.69;5034418;28;20052;-68
2023/03/01 08:55:14;;;;;;;19.38;17.02;;;11.00;99.90;;;11.08;50.39;102827.06;5035752;28;20045;-69
2023/03/01 08:57:43;;;;;;;19.85;17.45;;;11.00;99.90;;;10.93;50.88;102839.03;5034557;28;20053;-68
2023/03/01 09:00:14;;;;;;;20.70;17.55;;;10.80;99.90;;;9.74;52.70;102832.09;5035858;28;20120;-69
2023/03/01 09:02:43;;;;;;;22.73;17.83;;;10.00;99.90;;;9.72;53.21;102838.16;5035745;28;20123;-69
2023/03/01 09:05:11;;;;;;;21.23;18.65;;;9.70;99.90;;;10.15;55.18;102835.09;5035497;28;20167;-69
2023/03/01 09:07:41;;;;;;;21.70;18.13;;;9.80;99.90;;;10.66;52.93;102833.91;5035492;28;20046;-68
2023/03/01 09:10:11;;;;;;;19.92;17.73;;;10.30;99.90;;;11.10;51.93;102835.03;5035570;28;20476;-69
2023/03/01 09:12:39;;;;;;;19.60;16.83;;;10.80;99.90;;;11.46;51.05;102838.56;5035797;28;20053;-69
2023/03/01 09:15:10;;;;;;;21.42;17.75;;;11.20;99.90;;;11.95;50.93;102830.00;5035230;28;20038;-68
2023/03/01 09:17:38;;;;;;;18.17;16.35;;;11.60;99.90;;;12.15;49.92;102826.03;5035317;28;20049;-69
2023/03/01 09:20:08;;;;;;;18.33;16.42;;;12.00;99.90;;;12.53;49.41;102831.22;5035434;28;20464;-69
2023/03/01 09:22:36;;;;;;;18.52;16.10;;;12.30;99.90;;;12.71;47.98;102817.41;5035478;28;20111;-69
2023/03/01 09:25:07;;;;;;;17.77;14.48;;;12.60;99.90;;;12.84;47.15;102821.16;5035358;28;20063;-69
2023/03/01 09:27:36;;;;;;;17.25;14.75;;;12.60;99.90;;;11.78;46.25;102753.66;5035378;28;20449;-69
2023/03/01 09:30:05;;;;;;;16.50;14.70;;;12.30;99.90;;;12.23;47.76;102814.69;5033862;28;20093;-69
2023/03/01 09:32:34;;;;;;;16.20;14.05;;;12.00;99.90;;;12.36;47.22;102823.78;5035063;28;20059;-69
2023/03/01 09:35:04;;;;;;;18.08;14.02;;;12.10;99.90;;;12.64;46.49;102812.81;5034983;28;20060;-69
2023/03/01 09:37:34;;;;;;;12.43;11.15;;;12.30;99.90;;;12.76;43.98;102815.69;5034593;28;20132;-69
2023/03/01 09:40:04;;;;;;;15.20;12.18;;;12.50;99.90;;;12.88;43.82;102821.22;5034944;28;20045;-69
2023/03/01 09:42:36;;;;;;;12.17;10.97;;;12.70;99.90;;;12.15;43.26;102786.22;5034541;28;20057;-69
2023/03/01 09:45:08;;;;;;;11.93;10.77;;;12.20;99.90;;;11.56;43.68;102804.38;5033455;28;20060;-69
2023/03/01 09:47:37;;;;;;;11.90;10.68;;;11.60;99.90;;;11.85;45.06;102799.75;5034382;28;20120;-69
2023/03/01 09:50:12;;;;;;;14.50;10.85;;;11.60;99.90;;;11.64;44.17;102794.84;5034387;28;20057;-69
2023/03/01 09:52:43;;;;;;;12.48;10.90;;;11.50;99.90;;;11.15;44.60;102809.59;5034266;28;20041;-69
2023/03/01 09:55:15;;;;;;;13.43;11.95;;;11.10;99.90;;;8.90;47.63;102795.91;5034627;28;20116;-69
2023/03/01 09:57:51;;;;;;;14.05;11.75;;;9.40;99.90;;;8.45;50.29;102786.47;5033563;28;20112;-69
2023/03/01 10:00:35;;;;;;;14.00;12.57;;;8.50;99.90;;;9.88;51.06;102790.22;5034552;28;20115;-69
2023/03/01 10:03:15;;;;;;;13.20;11.85;;;9.20;99.90;;;10.83;48.68;102790.22;5034237;28;20041;-69
2023/03/01 10:05:53;;;;;;;12.48;11.20;;;10.20;99.90;;;10.64;45.88;102774.75;5034022;28;20449;-69
2023/03/01 10:08:37;;;;;;;12.57;11.27;;;10.70;99.90;;;10.03;47.57;102778.34;5034047;28;20447;-69
2023/03/01 10:11:18;;;;;;;12.15;10.85;;;10.10;99.90;;;9.33;49.32;102781.50;5034031;28;20048;-69
2023/03/01 10:13:59;;;;;;;14.77;10.32;;;9.20;99.90;;;9.15;49.70;102780.91;5034327;28;20187;-70
2023/03/01 10:16:42;;;;;;;12.38;10.38;;;8.90;99.90;;;10.08;49.23;102777.56;5033889;28;20041;-69
2023/03/01 10:19:18;;;;;;;11.73;10.40;;;9.50;99.90;;;10.09;48.16;102774.06;5033905;28;20060;-69
2023/03/01 10:21:47;;;;;;;12.82;10.10;;;9.70;99.90;;;9.12;48.46;102762.34;5033906;28;20480;-69
2023/03/01 10:24:21;;;;;;;12.82;10.35;;;9.20;99.90;;;9.61;49.20;102774.44;5032619;28;20041;-69
2023/03/01 10:26:57;;;;;;;13.98;10.73;;;9.20;99.90;;;9.84;48.61;102762.81;5033852;28;20072;-69